Time;durP1;ratioP1;P1;durP2;ratioP2;P2;SDS_P1;SDS_P2;PMS_P1;PMS_P2;Temp;Humidity;BMP_temperature;BMP_pressure;BME280_temperature;BME280_humidity;BME280_pressure;Samples;Min_cycle;Max_cycle;Signal;HPM_P1;HPM_P2
2021/10/05 00:01:53;;;;;;;18.80;2.75;;;15.10;99.90;;;;;;5054908;28;20087;-78
2021/10/05 00:04:19;;;;;;;21.52;2.85;;;15.10;99.90;;;;;;5055264;28;20095;-77
2021/10/05 00:06:44;;;;;;;19.88;2.63;;;15.00;99.90;;;;;;5053530;28;20049;-77
2021/10/05 00:09:10;;;;;;;27.13;3.22;;;15.00;99.90;;;;;;5053517;28;20111;-78
2021/10/05 00:11:36;;;;;;;18.55;3.05;;;15.00;99.90;;;;;;5054827;28;20028;-77
2021/10/05 00:14:02;;;;;;;;;;;14.90;99.90;;;;;;5053869;28;20037;-77
2021/10/05 00:16:28;;;;;;;19.25;2.65;;;15.00;99.90;;;;;;5054704;28;19905;-77
2021/10/05 00:18:54;;;;;;;22.73;3.13;;;15.10;99.90;;;;;;5054604;28;20028;-77
2021/10/05 00:21:20;;;;;;;18.45;2.92;;;15.00;99.90;;;;;;5054617;28;20055;-78
2021/10/05 00:23:46;;;;;;;;;;;15.10;99.90;;;;;;5054857;28;20024;-77
2021/10/05 00:26:11;;;;;;;25.75;3.38;;;15.10;99.90;;;;;;5054936;28;20391;-78
2021/10/05 00:28:37;;;;;;;19.55;2.85;;;15.10;99.90;;;;;;5054423;28;20388;-78
2021/10/05 00:31:03;;;;;;;19.05;3.30;;;15.10;99.90;;;;;;5054239;28;20409;-77
2021/10/05 00:33:29;;;;;;;22.60;3.25;;;15.10;99.90;;;;;;5054470;28;20551;-77
2021/10/05 00:35:55;;;;;;;16.08;2.13;;;15.20;99.90;;;;;;5054432;28;20362;-77
2021/10/05 00:38:20;;;;;;;17.48;2.65;;;15.20;99.90;;;;;;5054154;28;20029;-77
2021/10/05 00:40:46;;;;;;;18.23;2.42;;;15.20;99.90;;;;;;5052902;28;20033;-77
2021/10/05 00:43:12;;;;;;;14.27;2.03;;;15.10;99.90;;;;;;5054375;28;20401;-78
2021/10/05 00:45:38;;;;;;;23.40;3.42;;;15.10;99.90;;;;;;5054158;28;20032;-78
2021/10/05 00:48:04;;;;;;;;;;;15.00;99.90;;;;;;5054524;28;20496;-77
2021/10/05 00:50:30;;;;;;;15.70;2.20;;;15.10;99.90;;;;;;5054455;28;19944;-78
2021/10/05 00:52:56;;;;;;;15.00;2.30;;;15.00;99.90;;;;;;5053959;28;20056;-78
2021/10/05 00:55:22;;;;;;;13.77;2.20;;;15.10;99.90;;;;;;5052622;28;20056;-78
2021/10/05 00:57:52;;;;;;;17.10;2.80;;;15.10;99.90;;;;;;5054169;28;20028;-78
2021/10/05 01:00:18;;;;;;;15.77;2.95;;;15.10;99.90;;;;;;5052496;28;20508;-78
2021/10/05 01:02:45;;;;;;;16.13;2.78;;;15.20;99.90;;;;;;5053188;28;20029;-78
2021/10/05 01:05:11;;;;;;;16.63;2.55;;;15.30;99.90;;;;;;5052430;28;20178;-79
2021/10/05 01:07:37;;;;;;;14.95;2.67;;;15.10;99.90;;;;;;5052443;28;20497;-79
2021/10/05 01:10:04;;;;;;;18.50;2.63;;;15.10;99.90;;;;;;5053222;28;20028;-78
2021/10/05 01:12:30;;;;;;;15.80;2.08;;;15.10;99.90;;;;;;5052307;28;20024;-78
2021/10/05 01:14:55;;;;;;;13.15;2.60;;;15.20;99.90;;;;;;5053863;28;20432;-79
2021/10/05 01:17:21;;;;;;;15.20;2.35;;;15.20;99.90;;;;;;5053715;28;20096;-78
2021/10/05 01:19:47;;;;;;;15.35;2.42;;;15.10;99.90;;;;;;5053492;28;20035;-79
2021/10/05 01:22:13;;;;;;;12.45;2.10;;;15.20;99.90;;;;;;5053821;28;20107;-78
2021/10/05 01:24:39;;;;;;;;;;;15.20;99.90;;;;;;5052495;28;20031;-79
2021/10/05 01:27:05;;;;;;;14.75;2.30;;;15.20;99.90;;;;;;5053408;28;19905;-79
2021/10/05 01:29:33;;;;;;;12.75;2.40;;;15.20;99.90;;;;;;5053285;28;20033;-79
2021/10/05 01:32:02;;;;;;;18.05;2.20;;;15.20;99.90;;;;;;5053395;28;20095;-79
2021/10/05 01:34:29;;;;;;;13.68;2.33;;;15.20;99.90;;;;;;5051937;28;20029;-79
2021/10/05 01:36:59;;;;;;;11.30;1.63;;;15.20;99.90;;;;;;5051954;28;20028;-81
2021/10/05 01:39:42;;;;;;;11.27;1.73;;;15.20;99.90;;;;;;5054443;28;20110;-81
2021/10/05 01:42:11;;;;;;;12.40;2.17;;;15.10;99.90;;;;;;5056155;28;20063;-81
2021/10/05 01:44:38;;;;;;;10.68;2.00;;;15.00;99.90;;;;;;5055106;28;20051;-82
2021/10/05 01:47:05;;;;;;;9.68;1.60;;;15.10;99.90;;;;;;5055419;28;20440;-82
2021/10/05 01:49:32;;;;;;;11.43;1.73;;;15.00;99.90;;;;;;5053024;28;20021;-83
2021/10/05 01:51:58;;;;;;;13.90;2.30;;;14.90;99.90;;;;;;5053029;28;20079;-82
2021/10/05 01:54:24;;;;;;;9.48;1.77;;;15.00;99.90;;;;;;5051766;28;20036;-82
2021/10/05 01:56:50;;;;;;;11.27;1.77;;;14.90;99.90;;;;;;5051921;28;20389;-81
2021/10/05 01:59:16;;;;;;;10.75;1.60;;;15.00;99.90;;;;;;5053718;28;20144;-82
2021/10/05 02:01:42;;;;;;;12.05;1.73;;;14.90;99.90;;;;;;5051882;28;20033;-82
2021/10/05 02:04:09;;;;;;;9.63;1.83;;;14.90;99.90;;;;;;5051975;28;20554;-83
2021/10/05 02:06:40;;;;;;;7.68;1.45;;;14.90;99.90;;;;;;5052303;28;20047;-82
2021/10/05 02:09:08;;;;;;;15.00;1.60;;;14.90;99.90;;;;;;5053132;28;20018;-83
2021/10/05 02:11:34;;;;;;;7.82;1.55;;;14.90;99.90;;;;;;5051798;28;20032;-85
2021/10/05 02:14:00;;;;;;;5.95;1.20;;;14.90;99.90;;;;;;5051834;28;20481;-83
2021/10/05 02:16:26;;;;;;;5.22;1.20;;;14.90;99.90;;;;;;5052931;28;20053;-84
2021/10/05 02:18:55;;;;;;;9.55;1.30;;;14.90;99.90;;;;;;5053496;28;20448;-83
2021/10/05 02:21:21;;;;;;;7.53;1.20;;;14.80;99.90;;;;;;5055839;28;20025;-83
2021/10/05 02:26:32;;;;;;;6.60;1.02;;;14.90;99.90;;;;;;5056924;28;20099;-86
2021/10/05 02:28:59;;;;;;;4.15;0.80;;;14.90;99.90;;;;;;5055561;28;20017;-83
2021/10/05 02:31:25;;;;;;;4.80;1.02;;;14.80;99.90;;;;;;5054966;28;20168;-82
2021/10/05 02:33:51;;;;;;;2.35;0.80;;;14.90;99.90;;;;;;5055393;28;20067;-84
2021/10/05 02:36:17;;;;;;;3.63;0.90;;;14.90;99.90;;;;;;5055446;28;20044;-83
2021/10/05 02:38:42;;;;;;;3.97;0.80;;;14.90;99.90;;;;;;5055441;28;20378;-83
2021/10/05 02:41:08;;;;;;;1.13;0.60;;;14.90;99.90;;;;;;5056579;28;20400;-84
2021/10/05 02:43:34;;;;;;;0.35;0.35;;;15.00;99.90;;;;;;5057111;28;20118;-84
2021/10/05 02:46:00;;;;;;;4.30;0.70;;;15.00;99.90;;;;;;5055454;28;20029;-85
2021/10/05 02:48:26;;;;;;;9.75;0.68;;;14.90;99.90;;;;;;5056871;28;20028;-85
2021/10/05 02:50:51;;;;;;;1.20;0.50;;;14.90;99.90;;;;;;5055041;28;20029;-85
2021/10/05 02:53:17;;;;;;;1.70;0.52;;;14.90;99.90;;;;;;5056567;28;20392;-84
2021/10/05 02:55:43;;;;;;;2.28;0.60;;;14.90;99.90;;;;;;5055356;28;20083;-86
2021/10/05 02:58:09;;;;;;;0.68;0.60;;;14.90;99.90;;;;;;5055208;28;20082;-86
2021/10/05 03:00:36;;;;;;;1.77;0.57;;;15.00;99.90;;;;;;5056180;28;20037;-85
2021/10/05 03:03:01;;;;;;;1.63;0.50;;;15.00;99.90;;;;;;5054742;28;20079;-85
2021/10/05 03:05:27;;;;;;;2.58;0.47;;;15.00;99.90;;;;;;5054988;28;20489;-85
2021/10/05 03:07:53;;;;;;;2.20;0.60;;;15.10;99.90;;;;;;5056845;28;20080;-83
2021/10/05 03:10:19;;;;;;;3.15;0.70;;;15.10;99.90;;;;;;5055180;28;20120;-84
2021/10/05 03:12:44;;;;;;;1.67;0.65;;;15.10;99.90;;;;;;5055066;28;20025;-86
2021/10/05 03:15:10;;;;;;;1.65;0.45;;;15.20;99.90;;;;;;5055103;28;20033;-85
2021/10/05 03:17:36;;;;;;;1.23;0.40;;;15.10;99.90;;;;;;5056291;28;20525;-87
2021/10/05 03:20:03;;;;;;;0.82;0.40;;;15.20;99.90;;;;;;5057865;28;20036;-84
2021/10/05 03:22:28;;;;;;;0.80;0.35;;;15.30;99.90;;;;;;5057832;28;20561;-85
2021/10/05 03:24:54;;;;;;;1.35;0.50;;;15.30;99.90;;;;;;5058508;28;20067;-84
2021/10/05 03:27:20;;;;;;;1.55;0.50;;;15.30;99.90;;;;;;5059561;28;20075;-85
2021/10/05 03:29:46;;;;;;;3.53;0.60;;;15.30;99.90;;;;;;5058630;28;20087;-84
2021/10/05 03:32:12;;;;;;;1.48;0.40;;;15.30;99.90;;;;;;5057036;28;20481;-84
2021/10/05 03:34:38;;;;;;;;;;;15.40;99.90;;;;;;5054717;28;20032;-84
2021/10/05 03:37:04;;;;;;;;;;;15.30;99.90;;;;;;5055852;28;19912;-84
2021/10/05 03:39:29;;;;;;;;;;;15.20;99.90;;;;;;5056312;28;19904;-84
2021/10/05 03:41:55;;;;;;;6.20;0.70;;;15.30;99.90;;;;;;5054043;28;20289;-85
2021/10/05 03:44:21;;;;;;;7.55;1.00;;;15.10;99.90;;;;;;5054244;28;20072;-85
2021/10/05 03:46:46;;;;;;;5.07;1.13;;;14.50;99.90;;;;;;5055544;28;20401;-84
2021/10/05 03:49:12;;;;;;;5.05;0.80;;;14.20;99.90;;;;;;5054328;28;20473;-84
2021/10/05 03:51:38;;;;;;;5.80;0.82;;;14.10;99.90;;;;;;5055488;28;20033;-85
2021/10/05 03:54:04;;;;;;;5.90;1.02;;;13.90;99.90;;;;;;5056016;28;20017;-85
2021/10/05 03:56:30;;;;;;;8.13;0.90;;;13.90;99.90;;;;;;5055850;28;20024;-86
2021/10/05 03:58:55;;;;;;;3.50;0.63;;;13.80;99.90;;;;;;5055291;28;20021;-85
2021/10/05 04:01:21;;;;;;;7.18;1.20;;;13.80;99.90;;;;;;5055148;28;20021;-84
2021/10/05 04:03:47;;;;;;;4.93;0.88;;;13.80;99.90;;;;;;5053952;28;20116;-82
2021/10/05 04:06:12;;;;;;;3.47;0.70;;;13.70;99.90;;;;;;5055155;28;20543;-83
2021/10/05 04:08:38;;;;;;;7.03;1.05;;;13.70;99.90;;;;;;5054994;28;20017;-82
2021/10/05 04:11:08;;;;;;;3.03;0.65;;;13.70;99.90;;;;;;5053580;28;20028;-84
2021/10/05 04:13:34;;;;;;;4.68;0.80;;;13.70;99.90;;;;;;5054732;28;20473;-81
2021/10/05 04:16:00;;;;;;;10.13;1.20;;;13.60;99.90;;;;;;5054658;28;20036;-82
2021/10/05 04:18:25;;;;;;;5.95;0.98;;;13.60;99.90;;;;;;5054653;28;20037;-82
2021/10/05 04:20:51;;;;;;;5.97;1.02;;;13.50;99.90;;;;;;5054970;28;20149;-82
2021/10/05 04:23:17;;;;;;;6.38;1.20;;;13.40;99.90;;;;;;5054439;28;20047;-82
2021/10/05 04:25:43;;;;;;;8.55;1.02;;;13.30;99.90;;;;;;5054507;28;20044;-83
2021/10/05 04:28:09;;;;;;;8.60;1.25;;;13.40;99.90;;;;;;5054484;28;20095;-80
2021/10/05 04:30:34;;;;;;;5.00;1.10;;;13.40;99.90;;;;;;5054349;28;20045;-80
2021/10/05 04:33:00;;;;;;;8.25;1.48;;;13.30;99.90;;;;;;5053030;28;20402;-82
2021/10/05 04:35:26;;;;;;;9.40;1.23;;;13.30;99.90;;;;;;5054263;28;20101;-83
2021/10/05 04:37:52;;;;;;;10.07;1.48;;;13.40;99.90;;;;;;5054222;28;20029;-82
2021/10/05 04:40:18;;;;;;;10.27;1.50;;;13.40;99.90;;;;;;5054146;28;20021;-81
2021/10/05 04:42:44;;;;;;;9.30;1.50;;;13.40;99.90;;;;;;5052842;28;20028;-82
2021/10/05 04:45:10;;;;;;;11.07;1.63;;;13.40;99.90;;;;;;5052747;28;20021;-82
2021/10/05 04:47:35;;;;;;;19.00;2.28;;;13.30;99.90;;;;;;5054160;28;20108;-82
2021/10/05 04:50:03;;;;;;;11.60;1.63;;;13.30;99.90;;;;;;5052753;28;20029;-82
2021/10/05 04:52:29;;;;;;;8.48;1.70;;;13.30;99.90;;;;;;5054012;28;20376;-81
2021/10/05 04:54:55;;;;;;;11.55;1.65;;;13.20;99.90;;;;;;5054081;28;20020;-82
2021/10/05 04:57:21;;;;;;;10.32;1.88;;;13.20;99.90;;;;;;5054059;28;20032;-82
2021/10/05 04:59:46;;;;;;;10.88;1.80;;;13.00;99.90;;;;;;5054159;28;20029;-81
2021/10/05 05:02:12;;;;;;;11.25;1.80;;;12.90;99.90;;;;;;5054211;28;20032;-82
2021/10/05 05:04:38;;;;;;;7.63;1.38;;;12.90;99.90;;;;;;5054078;28;20017;-81
2021/10/05 05:07:04;;;;;;;14.63;1.80;;;12.70;99.90;;;;;;5054161;28;20029;-82
2021/10/05 05:09:30;;;;;;;12.65;1.88;;;12.70;99.90;;;;;;5054173;28;20029;-81
2021/10/05 05:11:56;;;;;;;11.50;1.75;;;12.70;99.90;;;;;;5054251;28;20083;-83
2021/10/05 05:14:21;;;;;;;13.35;1.75;;;12.60;99.90;;;;;;5054477;28;20024;-82
2021/10/05 05:16:48;;;;;;;13.07;1.75;;;12.40;99.90;;;;;;5054459;28;20075;-81
2021/10/05 05:19:14;;;;;;;18.92;2.10;;;12.40;99.90;;;;;;5052893;28;20028;-82
2021/10/05 05:21:40;;;;;;;16.35;1.90;;;12.40;99.90;;;;;;5054093;28;20101;-83
2021/10/05 05:24:05;;;;;;;14.02;2.38;;;12.30;99.90;;;;;;5054077;28;20029;-82
2021/10/05 05:26:31;;;;;;;16.02;2.30;;;12.20;99.90;;;;;;5052677;28;20040;-82
2021/10/05 05:28:57;;;;;;;16.95;2.30;;;12.20;99.90;;;;;;5054278;28;20482;-81
2021/10/05 05:31:23;;;;;;;13.07;2.38;;;12.10;99.90;;;;;;5053681;28;20501;-82
2021/10/05 05:33:49;;;;;;;19.00;2.40;;;12.10;99.90;;;;;;5053994;28;20096;-81
2021/10/05 05:36:14;;;;;;;18.48;2.63;;;12.10;99.90;;;;;;5054608;28;20025;-82
2021/10/05 05:38:40;;;;;;;13.13;2.17;;;12.00;99.90;;;;;;5054143;28;20060;-82
2021/10/05 05:41:07;;;;;;;17.40;2.65;;;12.00;99.90;;;;;;5054611;28;20485;-81
2021/10/05 05:43:33;;;;;;;;;;;12.00;99.90;;;;;;5054847;28;20076;-81
2021/10/05 05:45:59;;;;;;;11.95;2.10;;;11.90;99.90;;;;;;5054181;28;19904;-82
2021/10/05 05:48:24;;;;;;;16.95;2.13;;;11.90;99.90;;;;;;5054109;28;20025;-82
2021/10/05 05:50:50;;;;;;;20.55;2.22;;;11.90;99.90;;;;;;5052779;28;20025;-81
2021/10/05 05:53:18;;;;;;;25.50;3.38;;;11.80;99.90;;;;;;5053846;28;20398;-82
2021/10/05 05:55:44;;;;;;;15.23;2.05;;;11.70;99.90;;;;;;5052070;28;20079;-82
2021/10/05 05:58:15;;;;;;;20.23;2.60;;;11.80;99.90;;;;;;5052715;28;20025;-82
2021/10/05 06:00:45;;;;;;;13.38;3.15;;;11.80;99.90;;;;;;5054083;28;20025;-81
2021/10/05 06:03:12;;;;;;;18.65;2.80;;;11.80;99.90;;;;;;5053715;28;20029;-81
2021/10/05 06:05:39;;;;;;;17.30;2.15;;;11.80;99.90;;;;;;5052875;28;20066;-82
2021/10/05 06:08:05;;;;;;;14.07;2.30;;;11.80;99.90;;;;;;5053870;28;20103;-81
2021/10/05 06:10:31;;;;;;;17.70;2.60;;;11.80;99.90;;;;;;5053894;28;20524;-82
2021/10/05 06:12:57;;;;;;;20.30;2.35;;;11.70;99.90;;;;;;5053624;28;20033;-81
2021/10/05 06:15:24;;;;;;;19.02;2.25;;;11.70;99.90;;;;;;5052380;28;20028;-82
2021/10/05 06:17:50;;;;;;;15.43;2.75;;;11.70;99.90;;;;;;5053420;28;20029;-80
2021/10/05 06:20:29;;;;;;;22.05;2.75;;;11.70;99.90;;;;;;5052111;28;20048;-81
2021/10/05 06:22:55;;;;;;;18.98;2.58;;;11.60;99.90;;;;;;5054008;28;20025;-82
2021/10/05 06:25:23;;;;;;;15.18;2.08;;;11.60;99.90;;;;;;5053420;28;20028;-81
2021/10/05 06:27:50;;;;;;;19.52;2.55;;;11.60;99.90;;;;;;5051739;28;20051;-81
2021/10/05 06:30:17;;;;;;;14.07;2.10;;;11.60;99.90;;;;;;5052980;28;20583;-80
2021/10/05 06:32:52;;;;;;;21.30;2.63;;;11.70;99.90;;;;;;5051718;28;20562;-81
2021/10/05 06:35:23;;;;;;;23.40;3.03;;;11.80;99.90;;;;;;5053075;28;20045;-81
2021/10/05 06:37:51;;;;;;;20.00;2.38;;;11.80;99.90;;;;;;5052877;28;20029;-81
2021/10/05 06:40:17;;;;;;;19.48;2.70;;;11.90;99.90;;;;;;5051511;28;20493;-81
2021/10/05 06:42:43;;;;;;;15.63;2.50;;;11.90;99.90;;;;;;5051369;28;20393;-81
2021/10/05 06:45:09;;;;;;;16.58;3.50;;;11.80;99.90;;;;;;5053126;28;20096;-82
2021/10/05 06:47:35;;;;;;;24.40;2.45;;;11.90;99.90;;;;;;5052922;28;20025;-80
2021/10/05 06:50:04;;;;;;;19.98;2.97;;;11.80;99.90;;;;;;5052495;28;20362;-81
2021/10/05 06:52:30;;;;;;;19.15;2.63;;;11.90;99.90;;;;;;5052472;28;20485;-81
2021/10/05 06:54:56;;;;;;;;;;;12.10;99.90;;;;;;5052870;28;20500;-81
2021/10/05 06:57:22;;;;;;;19.65;2.80;;;12.30;99.90;;;;;;5051123;28;19966;-80
2021/10/05 06:59:48;;;;;;;18.13;3.38;;;12.60;99.90;;;;;;5052426;28;20083;-81
2021/10/05 07:02:13;;;;;;;17.50;2.50;;;12.70;99.90;;;;;;5051071;28;20112;-81
2021/10/05 07:04:39;;;;;;;17.20;2.60;;;12.90;99.90;;;;;;5052416;28;20525;-82
2021/10/05 07:07:05;;;;;;;16.25;2.55;;;13.20;99.90;;;;;;5052657;28;20060;-81
2021/10/05 07:09:31;;;;;;;16.63;2.65;;;13.10;99.90;;;;;;5055525;28;20029;-81
2021/10/05 07:11:57;;;;;;;18.27;2.90;;;13.30;99.90;;;;;;5054714;28;20088;-81
2021/10/05 07:14:23;;;;;;;20.63;2.58;;;13.40;99.90;;;;;;5056118;28;20067;-81
2021/10/05 07:16:48;;;;;;;17.45;2.60;;;13.60;99.90;;;;;;5054495;28;20025;-81
2021/10/05 07:19:14;;;;;;;14.93;2.55;;;13.80;99.90;;;;;;5054467;28;20029;-81
2021/10/05 07:21:40;;;;;;;;;;;14.20;99.90;;;;;;5056172;28;20029;-81
2021/10/05 07:24:06;;;;;;;23.38;3.60;;;14.10;99.90;;;;;;5055641;28;19952;-81
2021/10/05 07:26:31;;;;;;;;;;;14.10;99.90;;;;;;5056085;28;20074;-81
2021/10/05 07:28:57;;;;;;;19.80;3.35;;;14.50;99.90;;;;;;5055605;28;19912;-81
2021/10/05 07:31:23;;;;;;;17.92;3.05;;;14.70;99.90;;;;;;5055170;28;20049;-82
2021/10/05 07:33:48;;;;;;;15.13;2.40;;;14.80;99.90;;;;;;5055785;28;20036;-81
2021/10/05 07:36:17;;;;;;;15.35;2.53;;;15.50;99.90;;;;;;5054189;28;20021;-81
2021/10/05 07:38:42;;;;;;;12.25;2.63;;;15.50;99.90;;;;;;5054073;28;20512;-81
2021/10/05 07:41:08;;;;;;;23.42;3.25;;;15.70;99.90;;;;;;5054183;28;20021;-82
2021/10/05 07:43:34;;;;;;;16.50;3.08;;;15.80;99.90;;;;;;5054059;28;20470;-81
2021/10/05 07:46:04;;;;;;;18.58;3.03;;;15.90;99.90;;;;;;5055341;28;20083;-81
2021/10/05 07:48:30;;;;;;;15.82;2.95;;;15.90;99.90;;;;;;5054035;28;20053;-81
2021/10/05 07:50:56;;;;;;;14.15;2.50;;;16.40;99.90;;;;;;5055312;28;20065;-82
2021/10/05 07:53:22;;;;;;;13.52;2.65;;;16.80;99.90;;;;;;5053888;28;20112;-82
2021/10/05 07:55:48;;;;;;;17.60;2.75;;;17.50;99.90;;;;;;5055432;28;20112;-81
2021/10/05 07:58:13;;;;;;;15.27;2.90;;;17.10;99.90;;;;;;5053823;28;20028;-81
2021/10/05 08:00:39;;;;;;;13.93;3.05;;;16.60;99.90;;;;;;5055084;28;20029;-81
2021/10/05 08:03:05;;;;;;;17.88;3.28;;;16.70;99.90;;;;;;5053711;28;20029;-80
2021/10/05 08:05:31;;;;;;;14.65;2.85;;;17.40;99.90;;;;;;5054971;28;20059;-82
2021/10/05 08:08:01;;;;;;;14.85;2.92;;;17.90;99.90;;;;;;5053638;28;20032;-81
2021/10/05 08:10:27;;;;;;;13.25;2.83;;;17.50;99.90;;;;;;5053614;28;20021;-81
2021/10/05 08:12:53;;;;;;;12.90;2.83;;;17.10;99.90;;;;;;5053544;28;20033;-81
2021/10/05 08:15:19;;;;;;;16.30;2.90;;;17.80;99.90;;;;;;5055312;28;20080;-81
2021/10/05 08:17:45;;;;;;;13.35;3.17;;;18.40;99.90;;;;;;5053542;28;20116;-81
2021/10/05 08:20:11;;;;;;;15.02;3.33;;;18.50;99.90;;;;;;5054342;28;20057;-80
2021/10/05 08:22:37;;;;;;;14.80;3.42;;;19.10;99.90;;;;;;5036852;28;20032;-80
2021/10/05 08:25:04;;;;;;;12.98;3.33;;;19.30;99.90;;;;;;5053295;28;20021;-81
2021/10/05 08:27:30;;;;;;;11.93;2.55;;;18.90;99.90;;;;;;5053295;28;20025;-81
2021/10/05 08:29:56;;;;;;;15.50;3.97;;;19.00;99.90;;;;;;5054180;28;20033;-80
2021/10/05 08:32:22;;;;;;;13.20;3.20;;;18.90;99.90;;;;;;5053112;28;20053;-81
2021/10/05 08:34:48;;;;;;;15.20;3.75;;;19.90;99.90;;;;;;5054422;28;20110;-80
2021/10/05 08:37:14;;;;;;;14.90;3.30;;;19.80;99.90;;;;;;5054257;28;20024;-80
2021/10/05 08:39:40;;;;;;;12.05;2.80;;;20.40;99.90;;;;;;5053071;28;20025;-80
2021/10/05 08:42:06;;;;;;;13.63;2.95;;;21.30;99.90;;;;;;5052910;28;20029;-80
2021/10/05 08:44:32;;;;;;;12.35;3.08;;;20.80;99.60;;;;;;5054416;28;20100;-81
2021/10/05 08:46:58;;;;;;;13.30;2.78;;;21.60;97.70;;;;;;5054071;28;20025;-81
2021/10/05 08:49:24;;;;;;;11.75;2.90;;;21.30;95.70;;;;;;5054142;28;20074;-80
2021/10/05 08:51:51;;;;;;;12.73;3.10;;;21.10;94.90;;;;;;5053986;28;20047;-80
2021/10/05 08:54:17;;;;;;;10.48;3.08;;;21.30;95.40;;;;;;5052705;28;20025;-80
2021/10/05 08:56:44;;;;;;;13.65;3.10;;;22.30;94.20;;;;;;5052730;28;20397;-80
2021/10/05 08:59:11;;;;;;;14.63;3.03;;;22.30;93.00;;;;;;5054335;28;20066;-80
2021/10/05 09:01:38;;;;;;;13.68;2.97;;;23.60;89.80;;;;;;5052620;28;20101;-81
2021/10/05 09:04:05;;;;;;;14.18;2.78;;;24.30;87.80;;;;;;5052538;28;20115;-79
2021/10/05 09:06:32;;;;;;;11.52;2.80;;;23.90;86.80;;;;;;5053826;28;20087;-80
2021/10/05 09:09:01;;;;;;;14.70;3.30;;;24.80;82.40;;;;;;5054136;28;20158;-81
2021/10/05 09:11:36;;;;;;;11.35;2.90;;;25.00;77.20;;;;;;5052358;28;20025;-80
2021/10/05 09:14:01;;;;;;;13.43;2.60;;;24.00;76.80;;;;;;5054010;28;20025;-80
2021/10/05 09:16:30;;;;;;;18.13;3.20;;;24.50;73.60;;;;;;5053650;28;20501;-80
2021/10/05 09:19:09;;;;;;;14.77;3.00;;;24.50;73.10;;;;;;5053536;28;20047;-80
2021/10/05 09:21:50;;;;;;;14.70;3.10;;;25.40;70.90;;;;;;5054111;28;20024;-81
2021/10/05 09:24:34;;;;;;;12.13;2.70;;;25.60;71.30;;;;;;5053843;28;20021;-80
2021/10/05 09:27:04;;;;;;;13.25;2.63;;;27.70;68.10;;;;;;5051961;28;20404;-81
2021/10/05 09:29:31;;;;;;;11.73;2.40;;;28.60;62.20;;;;;;5053129;28;20025;-81
2021/10/05 09:32:04;;;;;;;10.77;2.65;;;28.10;61.10;;;;;;5052776;28;20064;-81
2021/10/05 09:34:34;;;;;;;9.87;2.50;;;28.00;62.60;;;;;;5052401;28;20052;-81
2021/10/05 09:37:20;;;;;;;12.02;2.53;;;26.70;62.00;;;;;;5053355;28;20028;-81
2021/10/05 09:39:52;;;;;;;11.77;2.42;;;26.80;60.00;;;;;;5053651;28;20021;-80
2021/10/05 09:42:22;;;;;;;10.05;2.22;;;23.50;67.70;;;;;;5051674;28;20032;-80
2021/10/05 09:44:56;;;;;;;9.98;2.60;;;22.90;70.60;;;;;;5053832;28;20021;-80
2021/10/05 09:47:55;;;;;;;11.43;2.53;;;23.80;67.90;;;;;;5051748;28;20094;-80
2021/10/05 09:50:32;;;;;;;13.75;2.70;;;23.30;70.00;;;;;;5052129;28;20029;-80
2021/10/05 09:53:11;;;;;;;16.25;2.58;;;24.20;67.00;;;;;;5051687;28;20170;-80
2021/10/05 09:55:41;;;;;;;9.13;2.40;;;23.70;67.00;;;;;;5051757;28;20032;-80
2021/10/05 09:58:08;;;;;;;12.75;2.55;;;25.40;65.50;;;;;;5053380;28;20033;-80
2021/10/05 10:00:37;;;;;;;16.10;3.00;;;23.70;67.00;;;;;;5053131;28;20033;-80
2021/10/05 10:03:06;;;;;;;14.18;2.70;;;21.50;71.20;;;;;;5051857;28;20389;-80
2021/10/05 10:05:32;;;;;;;12.07;2.70;;;24.70;66.60;;;;;;5053122;28;20071;-80
2021/10/05 10:07:59;;;;;;;13.00;2.30;;;25.20;64.00;;;;;;5051815;28;20025;-80
2021/10/05 10:10:30;;;;;;;9.48;2.38;;;24.10;66.10;;;;;;5053248;28;20469;-81
2021/10/05 10:13:02;;;;;;;10.52;2.58;;;24.60;66.80;;;;;;5053079;28;20388;-81
2021/10/05 10:15:31;;;;;;;9.80;2.38;;;24.90;64.10;;;;;;5053378;28;20025;-80
2021/10/05 10:18:08;;;;;;;12.90;2.60;;;24.50;65.20;;;;;;5053259;28;20036;-80
2021/10/05 10:20:37;;;;;;;16.23;2.60;;;27.50;62.50;;;;;;5051412;28;20053;-81
2021/10/05 10:23:14;;;;;;;13.38;2.38;;;28.00;60.90;;;;;;5052705;28;20493;-81
2021/10/05 10:25:53;;;;;;;12.18;2.58;;;28.60;57.00;;;;;;5052757;28;20524;-80
2021/10/05 10:28:28;;;;;;;8.43;2.13;;;30.00;57.40;;;;;;5052881;28;20473;-82
2021/10/05 10:30:56;;;;;;;11.68;2.70;;;30.80;50.80;;;;;;5051278;28;20073;-81
2021/10/05 10:33:25;;;;;;;11.10;2.45;;;29.80;55.40;;;;;;5053080;28;20053;-81
2021/10/05 10:35:56;;;;;;;12.48;2.53;;;29.20;55.00;;;;;;5051561;28;20025;-81
2021/10/05 10:38:36;;;;;;;8.05;2.15;;;30.80;53.30;;;;;;5051323;28;20029;-81
2021/10/05 10:41:19;;;;;;;9.27;2.17;;;30.70;53.00;;;;;;5051275;28;20021;-80
2021/10/05 10:44:00;;;;;;;8.97;2.30;;;27.60;54.20;;;;;;5056648;28;20103;-80
2021/10/05 10:46:32;;;;;;;12.40;3.08;;;25.10;59.90;;;;;;5055064;28;20048;-81
2021/10/05 10:49:00;;;;;;;8.45;2.30;;;27.20;56.10;;;;;;5055145;28;20433;-81
2021/10/05 10:51:29;;;;;;;10.52;2.97;;;29.70;54.30;;;;;;5056439;28;20051;-81
2021/10/05 10:54:00;;;;;;;8.32;2.40;;;29.70;52.10;;;;;;5056708;28;20029;-81
2021/10/05 10:56:36;;;;;;;11.18;2.58;;;31.10;50.20;;;;;;5054853;28;20029;-80
2021/10/05 10:59:08;;;;;;;8.93;2.65;;;31.00;49.60;;;;;;5056259;28;20025;-80
2021/10/05 11:01:45;;;;;;;8.40;2.65;;;32.30;48.50;;;;;;5055258;28;20049;-80
2021/10/05 11:04:15;;;;;;;11.18;2.35;;;33.90;47.50;;;;;;5033262;28;20041;-80
2021/10/05 11:06:46;;;;;;;10.70;2.35;;;28.20;49.20;;;;;;5042138;28;20512;-78
2021/10/05 11:09:12;;;;;;;11.40;2.20;;;23.80;56.10;;;;;;5043742;28;20470;-77
2021/10/05 11:11:52;;;;;;;10.48;2.22;;;22.00;65.00;;;;;;5045061;28;20025;-79
2021/10/05 11:14:23;;;;;;;10.02;2.33;;;23.50;68.70;;;;;;5046462;28;20021;-81
2021/10/05 11:17:00;;;;;;;9.38;2.40;;;28.60;56.70;;;;;;5046280;28;20032;-81
2021/10/05 11:19:38;;;;;;;8.43;2.30;;;30.60;52.70;;;;;;5045039;28;20366;-80
2021/10/05 11:22:09;;;;;;;8.05;2.17;;;29.90;53.30;;;;;;5044244;28;20033;-80
2021/10/05 11:24:45;;;;;;;11.73;2.30;;;30.90;48.40;;;;;;5043278;28;20022;-81
2021/10/05 11:27:15;;;;;;;9.77;2.50;;;33.60;46.30;;;;;;5043990;28;20022;-80
2021/10/05 11:29:42;;;;;;;8.90;2.67;;;36.10;43.90;;;;;;5047711;28;20517;-80
2021/10/05 11:32:12;;;;;;;7.85;2.60;;;35.80;42.40;;;;;;5054465;28;20025;-80
2021/10/05 11:34:40;;;;;;;8.63;2.50;;;35.40;42.40;;;;;;5054517;28;20397;-79
2021/10/05 11:37:08;;;;;;;8.82;2.45;;;33.10;41.30;;;;;;5054214;28;20017;-80
2021/10/05 11:39:35;;;;;;;9.02;2.47;;;35.10;41.70;;;;;;5055721;28;20017;-80
2021/10/05 11:42:18;;;;;;;8.07;2.50;;;35.40;41.10;;;;;;5054034;28;20032;-80
2021/10/05 11:44:54;;;;;;;7.85;2.85;;;37.40;41.00;;;;;;5053960;28;20078;-81
2021/10/05 11:47:23;;;;;;;9.82;2.55;;;37.00;39.40;;;;;;5053809;28;20017;-80
2021/10/05 11:50:06;;;;;;;9.82;2.50;;;34.20;40.80;;;;;;5055253;28;20083;-79
2021/10/05 11:52:39;;;;;;;10.57;2.35;;;32.50;42.20;;;;;;5053705;28;20060;-79
2021/10/05 11:55:06;;;;;;;9.55;2.42;;;32.50;41.60;;;;;;5054673;28;20096;-79
2021/10/05 11:57:34;;;;;;;7.63;2.50;;;34.00;41.60;;;;;;5055154;28;20029;-80
2021/10/05 12:00:04;;;;;;;7.68;2.13;;;35.30;40.20;;;;;;5053820;28;20029;-80
2021/10/05 12:02:30;;;;;;;10.85;2.10;;;35.70;40.40;;;;;;5054962;28;20028;-80
2021/10/05 12:04:56;;;;;;;12.77;2.35;;;34.20;40.10;;;;;;5055067;28;20071;-79
2021/10/05 12:07:25;;;;;;;9.15;1.63;;;31.70;43.60;;;;;;5053689;28;20440;-79
2021/10/05 12:10:01;;;;;;;7.07;1.83;;;28.40;46.80;;;;;;5054905;28;20485;-79
2021/10/05 12:12:46;;;;;;;7.00;1.90;;;33.20;43.70;;;;;;5053671;28;20094;-80
2021/10/05 12:15:20;;;;;;;11.27;2.40;;;33.70;41.30;;;;;;5055198;28;20029;-80
2021/10/05 12:18:00;;;;;;;7.30;1.95;;;33.70;39.30;;;;;;5053332;28;20440;-80
2021/10/05 12:20:25;;;;;;;7.93;2.83;;;33.30;39.90;;;;;;5053285;28;20041;-80
2021/10/05 12:22:51;;;;;;;6.53;2.03;;;34.70;39.00;;;;;;5054926;28;20021;-80
2021/10/05 12:25:19;;;;;;;9.10;2.38;;;35.90;39.10;;;;;;5054902;28;20370;-80
2021/10/05 12:27:47;;;;;;;8.60;2.13;;;34.90;39.60;;;;;;5054654;28;20044;-80
2021/10/05 12:30:28;;;;;;;5.85;2.35;;;34.10;39.00;;;;;;5054566;28;20417;-80
2021/10/05 12:32:56;;;;;;;10.45;2.72;;;36.10;39.40;;;;;;5054889;28;20104;-80
2021/10/05 12:35:30;;;;;;;7.45;2.40;;;38.00;39.50;;;;;;5053214;28;20082;-79
2021/10/05 12:38:17;;;;;;;7.90;2.40;;;36.50;38.30;;;;;;5053126;28;20112;-80
2021/10/05 12:41:01;;;;;;;5.22;2.22;;;35.30;39.70;;;;;;5054663;28;20029;-80
2021/10/05 12:43:36;;;;;;;6.45;2.50;;;35.90;39.20;;;;;;5052737;28;20107;-80
2021/10/05 12:46:05;;;;;;;6.03;2.30;;;37.50;37.80;;;;;;5054319;28;20048;-80
2021/10/05 12:48:43;;;;;;;9.05;2.55;;;36.90;38.30;;;;;;5052956;28;20082;-80
2021/10/05 12:51:15;;;;;;;8.13;2.70;;;36.80;38.70;;;;;;5054482;28;20025;-80